Time;durP1;ratioP1;P1;durP2;ratioP2;P2;SDS_P1;SDS_P2;PMS_P1;PMS_P2;Temp;Humidity;BMP_temperature;BMP_pressure;BME280_temperature;BME280_humidity;BME280_pressure;Samples;Min_cycle;Max_cycle;Signal;HPM_P1;HPM_P2
2021/03/03 00:00:41;;;;;;;178.02;50.17;;;;;;;;;;4994988;28;20041;-66
2021/03/03 00:03:06;;;;;;;166.02;48.78;;;;;;;;;;5008678;28;20109;-65
2021/03/03 00:05:32;;;;;;;200.13;50.58;;;;;;;;;;4996601;28;20068;-65
2021/03/03 00:07:57;;;;;;;165.20;48.33;;;;;;;;;;4996548;28;20038;-65
2021/03/03 00:10:22;;;;;;;173.75;50.15;;;;;;;;;;4996787;28;20360;-65
2021/03/03 00:12:48;;;;;;;158.15;51.60;;;;;;;;;;4996418;28;20478;-65
2021/03/03 00:15:14;;;;;;;170.25;48.08;;;;;;;;;;4996463;28;20054;-65
2021/03/03 00:17:39;;;;;;;152.20;46.95;;;;;;;;;;4996279;28;20431;-65
2021/03/03 00:20:05;;;;;;;153.80;45.47;;;;;;;;;;4996252;28;20387;-65
2021/03/03 00:22:30;;;;;;;139.98;47.53;;;;;;;;;;4996159;28;20026;-65
2021/03/03 00:24:56;;;;;;;142.48;43.78;;;;;;;;;;4995127;28;20369;-65
2021/03/03 00:27:21;;;;;;;140.93;45.53;;;;;;;;;;4996063;28;20022;-65
2021/03/03 00:29:46;;;;;;;145.10;46.75;;;;;;;;;;4995990;28;20534;-65
2021/03/03 00:32:11;;;;;;;115.50;38.70;;;;;;;;;;4995901;28;20034;-65
2021/03/03 00:34:37;;;;;;;133.15;40.80;;;;;;;;;;4996383;28;20034;-65
2021/03/03 00:37:02;;;;;;;115.32;40.38;;;;;;;;;;4995985;28;20038;-65
2021/03/03 00:39:27;;;;;;;132.70;40.97;;;;;;;;;;4995941;28;20034;-65
2021/03/03 00:41:53;;;;;;;127.97;41.38;;;;;;;;;;5000686;28;20017;-65
2021/03/03 00:44:19;;;;;;;117.68;36.92;;;;;;;;;;5015207;28;20057;-65
2021/03/03 00:46:44;;;;;;;119.00;39.00;;;;;;;;;;5015405;28;20038;-65
2021/03/03 00:49:09;;;;;;;115.93;37.90;;;;;;;;;;5015107;28;20022;-65
2021/03/03 00:51:34;;;;;;;119.93;39.88;;;;;;;;;;5015283;28;20030;-66
2021/03/03 00:54:00;;;;;;;109.63;37.72;;;;;;;;;;5015247;28;20034;-64
2021/03/03 00:56:25;;;;;;;113.47;38.88;;;;;;;;;;5015104;28;20471;-65
2021/03/03 00:58:50;;;;;;;117.93;38.85;;;;;;;;;;5015142;28;20029;-65
2021/03/03 01:01:16;;;;;;;107.40;38.30;;;;;;;;;;5014853;28;20088;-65
2021/03/03 01:03:41;;;;;;;102.43;35.85;;;;;;;;;;5014601;28;20014;-65
2021/03/03 01:06:06;;;;;;;165.68;51.85;;;;;;;;;;5014996;28;20659;-65
2021/03/03 01:08:31;;;;;;;105.95;36.38;;;;;;;;;;5015000;28;20092;-65
2021/03/03 01:10:57;;;;;;;107.55;36.60;;;;;;;;;;5015070;28;20028;-65
2021/03/03 01:13:22;;;;;;;86.28;34.60;;;;;;;;;;5014828;28;20095;-65
2021/03/03 01:15:47;;;;;;;103.63;35.45;;;;;;;;;;5015117;28;20096;-65
2021/03/03 01:18:12;;;;;;;100.70;34.92;;;;;;;;;;5014725;28;20017;-65
2021/03/03 01:20:38;;;;;;;106.10;35.10;;;;;;;;;;5014792;28;20485;-65
2021/03/03 01:23:05;;;;;;;103.05;34.78;;;;;;;;;;4996543;28;20030;-65
2021/03/03 01:25:30;;;;;;;111.93;38.15;;;;;;;;;;4994789;28;20538;-65
2021/03/03 01:27:56;;;;;;;98.38;35.60;;;;;;;;;;4994972;28;20161;-65
2021/03/03 01:30:21;;;;;;;94.85;35.63;;;;;;;;;;4995043;28;20030;-66
2021/03/03 01:32:46;;;;;;;107.53;35.03;;;;;;;;;;4994867;28;20045;-65
2021/03/03 01:35:12;;;;;;;82.68;32.53;;;;;;;;;;4994916;28;20120;-65
2021/03/03 01:37:38;;;;;;;92.32;35.22;;;;;;;;;;4994838;28;20074;-65
2021/03/03 01:40:03;;;;;;;91.72;34.85;;;;;;;;;;4994955;28;20022;-65
2021/03/03 01:42:29;;;;;;;108.90;39.53;;;;;;;;;;5004282;28;20504;-65
2021/03/03 01:44:54;;;;;;;110.07;38.72;;;;;;;;;;5014491;28;20057;-65
2021/03/03 01:47:19;;;;;;;102.90;34.13;;;;;;;;;;5014217;28;20091;-65
2021/03/03 01:49:44;;;;;;;129.52;44.03;;;;;;;;;;5014360;28;20528;-65
2021/03/03 01:52:10;;;;;;;140.55;44.92;;;;;;;;;;5014060;28;20474;-65
2021/03/03 01:54:35;;;;;;;132.82;44.67;;;;;;;;;;5006535;28;20108;-67
2021/03/03 01:57:01;;;;;;;132.57;45.63;;;;;;;;;;4991632;28;20040;-65
2021/03/03 01:59:27;;;;;;;134.10;44.15;;;;;;;;;;4993623;28;20077;-65
2021/03/03 02:01:53;;;;;;;121.75;37.33;;;;;;;;;;4993864;28;20023;-65
2021/03/03 02:04:18;;;;;;;104.82;36.45;;;;;;;;;;4994378;28;20093;-65
2021/03/03 02:06:54;;;;;;;101.35;36.05;;;;;;;;;;4993958;28;20045;-65
2021/03/03 02:09:38;;;;;;;114.43;38.17;;;;;;;;;;4994185;28;20121;-65
2021/03/03 02:12:06;;;;;;;93.18;35.50;;;;;;;;;;4994196;28;20104;-65
2021/03/03 02:14:32;;;;;;;120.53;40.67;;;;;;;;;;4993523;28;20077;-65
2021/03/03 02:16:59;;;;;;;142.30;47.30;;;;;;;;;;4994102;28;20045;-66
2021/03/03 02:19:33;;;;;;;121.40;41.80;;;;;;;;;;4994209;28;20337;-65
2021/03/03 02:22:03;;;;;;;147.63;47.65;;;;;;;;;;4994121;28;20154;-65
2021/03/03 02:24:31;;;;;;;136.45;45.58;;;;;;;;;;4993815;28;20114;-65
2021/03/03 02:26:57;;;;;;;122.07;41.15;;;;;;;;;;4993959;28;20368;-65
2021/03/03 02:29:28;;;;;;;124.30;41.28;;;;;;;;;;4993672;28;20415;-65
2021/03/03 02:31:53;;;;;;;135.13;42.00;;;;;;;;;;4993951;28;20084;-65
2021/03/03 02:34:20;;;;;;;153.70;47.97;;;;;;;;;;4993869;28;20026;-65
2021/03/03 02:36:48;;;;;;;132.48;44.65;;;;;;;;;;4993882;28;20038;-65
2021/03/03 02:39:15;;;;;;;154.75;48.33;;;;;;;;;;4993923;28;20113;-65
2021/03/03 02:41:41;;;;;;;165.43;49.78;;;;;;;;;;4993742;28;20014;-65
2021/03/03 02:44:07;;;;;;;144.85;46.80;;;;;;;;;;4993661;28;20060;-67
2021/03/03 02:46:33;;;;;;;144.10;47.95;;;;;;;;;;4994095;28;20034;-65
2021/03/03 02:49:00;;;;;;;151.60;47.40;;;;;;;;;;4993623;28;20058;-65
2021/03/03 02:51:25;;;;;;;145.65;48.70;;;;;;;;;;4993769;28;20113;-65
2021/03/03 02:53:50;;;;;;;159.25;48.65;;;;;;;;;;4992364;28;20117;-65
2021/03/03 02:56:16;;;;;;;160.77;47.80;;;;;;;;;;4993722;28;20471;-65
2021/03/03 02:58:41;;;;;;;153.57;47.63;;;;;;;;;;4993594;28;20478;-65
2021/03/03 03:01:08;;;;;;;154.57;48.50;;;;;;;;;;4993726;28;20546;-65
2021/03/03 03:03:35;;;;;;;165.63;47.92;;;;;;;;;;4993585;28;20054;-65
2021/03/03 03:06:08;;;;;;;162.70;48.35;;;;;;;;;;4993957;28;20034;-65
2021/03/03 03:08:35;;;;;;;182.40;48.63;;;;;;;;;;4993507;28;20034;-65
2021/03/03 03:11:42;;;;;;;158.80;46.53;;;;;;;;;;4993965;28;20030;-65
2021/03/03 03:14:10;;;;;;;165.68;46.78;;;;;;;;;;4993195;28;20031;-65
2021/03/03 03:16:36;;;;;;;186.00;50.40;;;;;;;;;;4993284;28;20475;-65
2021/03/03 03:19:03;;;;;;;184.75;48.65;;;;;;;;;;4993446;28;20027;-65
2021/03/03 03:21:29;;;;;;;181.88;49.97;;;;;;;;;;4993626;28;20093;-65
2021/03/03 03:23:55;;;;;;;198.98;48.72;;;;;;;;;;4993375;28;20065;-65
2021/03/03 03:26:22;;;;;;;187.70;46.35;;;;;;;;;;4995530;28;20026;-65
2021/03/03 03:28:48;;;;;;;218.23;50.55;;;;;;;;;;4997265;28;20065;-65
2021/03/03 03:31:13;;;;;;;243.18;49.60;;;;;;;;;;4997298;28;20054;-66
2021/03/03 03:33:39;;;;;;;177.00;45.22;;;;;;;;;;4996786;28;20021;-66
2021/03/03 03:36:04;;;;;;;200.55;49.28;;;;;;;;;;4997234;28;20057;-65
2021/03/03 03:38:30;;;;;;;206.15;49.13;;;;;;;;;;4996734;28;20037;-67
2021/03/03 03:40:58;;;;;;;236.68;49.55;;;;;;;;;;4996829;28;20486;-65
2021/03/03 03:43:23;;;;;;;190.52;48.58;;;;;;;;;;5013953;28;20017;-66
2021/03/03 03:45:49;;;;;;;192.95;48.30;;;;;;;;;;5016762;28;20532;-65
2021/03/03 03:48:15;;;;;;;165.60;45.97;;;;;;;;;;5016237;28;20386;-65
2021/03/03 03:50:41;;;;;;;165.02;47.90;;;;;;;;;;5016622;28;20021;-65
2021/03/03 03:53:07;;;;;;;152.73;44.33;;;;;;;;;;5016406;28;20034;-65
2021/03/03 03:55:33;;;;;;;138.90;43.80;;;;;;;;;;5016385;28;20026;-65
2021/03/03 03:57:58;;;;;;;144.45;43.20;;;;;;;;;;5016302;28;20058;-65
2021/03/03 04:00:24;;;;;;;154.27;44.40;;;;;;;;;;5016434;28;20068;-66
2021/03/03 04:02:49;;;;;;;149.77;43.55;;;;;;;;;;5016173;28;20072;-65
2021/03/03 04:05:15;;;;;;;202.80;47.70;;;;;;;;;;5016151;28;20447;-65
2021/03/03 04:07:41;;;;;;;271.88;48.55;;;;;;;;;;5015993;28;20386;-65
2021/03/03 04:10:07;;;;;;;170.13;43.35;;;;;;;;;;5016259;28;20049;-66
2021/03/03 04:12:32;;;;;;;177.73;47.25;;;;;;;;;;5016106;28;20026;-65
2021/03/03 04:14:58;;;;;;;136.02;41.83;;;;;;;;;;5016082;28;20037;-65
2021/03/03 04:17:23;;;;;;;132.00;44.88;;;;;;;;;;5016218;28;20010;-65
2021/03/03 04:19:48;;;;;;;169.02;45.60;;;;;;;;;;5015757;28;20033;-65
2021/03/03 04:22:13;;;;;;;150.35;43.85;;;;;;;;;;5015638;28;20034;-65
2021/03/03 04:24:39;;;;;;;157.70;44.22;;;;;;;;;;5016111;28;20096;-65
2021/03/03 04:27:04;;;;;;;151.98;45.85;;;;;;;;;;5016173;28;20022;-65
2021/03/03 04:29:29;;;;;;;159.35;45.33;;;;;;;;;;5015894;28;20038;-65
2021/03/03 04:31:54;;;;;;;157.15;46.58;;;;;;;;;;5015458;28;20022;-65
2021/03/03 04:34:20;;;;;;;152.50;41.97;;;;;;;;;;5015596;28;20069;-65
2021/03/03 04:36:45;;;;;;;152.68;42.63;;;;;;;;;;5015477;28;20036;-65
2021/03/03 04:39:10;;;;;;;180.40;44.83;;;;;;;;;;5015086;28;20022;-65
2021/03/03 04:41:35;;;;;;;181.23;46.17;;;;;;;;;;5013120;28;20014;-65
2021/03/03 04:44:01;;;;;;;185.20;46.53;;;;;;;;;;4995705;28;20108;-65
2021/03/03 04:46:26;;;;;;;183.02;45.72;;;;;;;;;;4995990;28;20097;-65
2021/03/03 04:48:51;;;;;;;173.38;44.35;;;;;;;;;;4995743;28;20109;-66
2021/03/03 04:51:16;;;;;;;179.35;46.88;;;;;;;;;;4996206;28;20056;-65
2021/03/03 04:53:42;;;;;;;148.45;43.28;;;;;;;;;;4995623;28;20375;-65
2021/03/03 04:56:08;;;;;;;213.57;46.55;;;;;;;;;;4995719;28;20056;-65
2021/03/03 04:58:33;;;;;;;174.15;44.58;;;;;;;;;;4986914;28;20034;-66
2021/03/03 05:00:58;;;;;;;151.90;44.13;;;;;;;;;;4994113;28;20015;-66
2021/03/03 05:03:23;;;;;;;192.77;44.17;;;;;;;;;;4994393;28;20025;-65
2021/03/03 05:05:50;;;;;;;232.15;49.78;;;;;;;;;;4994684;28;20030;-65
2021/03/03 05:08:16;;;;;;;183.00;47.95;;;;;;;;;;4995460;28;20015;-67
2021/03/03 05:10:41;;;;;;;174.45;43.83;;;;;;;;;;4995547;28;20084;-66
2021/03/03 05:13:13;;;;;;;148.73;43.63;;;;;;;;;;4995397;28;20487;-65
2021/03/03 05:15:38;;;;;;;185.32;46.92;;;;;;;;;;4994969;28;20502;-66
2021/03/03 05:18:03;;;;;;;167.25;45.58;;;;;;;;;;4995066;28;20014;-65
2021/03/03 05:20:28;;;;;;;191.02;44.88;;;;;;;;;;4995217;28;20030;-66
2021/03/03 05:22:54;;;;;;;203.52;47.17;;;;;;;;;;4995160;28;20057;-65
2021/03/03 05:25:19;;;;;;;149.00;43.90;;;;;;;;;;4995281;28;20014;-66
2021/03/03 05:27:44;;;;;;;209.05;48.08;;;;;;;;;;4995004;28;20030;-65
2021/03/03 05:30:10;;;;;;;158.30;43.63;;;;;;;;;;4995132;28;20015;-66
2021/03/03 05:32:35;;;;;;;159.18;46.70;;;;;;;;;;4995060;28;20106;-65
2021/03/03 05:35:00;;;;;;;189.20;46.25;;;;;;;;;;4994917;28;20176;-65
2021/03/03 05:37:26;;;;;;;184.00;48.88;;;;;;;;;;4994903;28;20026;-65
2021/03/03 05:39:51;;;;;;;179.65;45.22;;;;;;;;;;4994930;28;20026;-65
2021/03/03 05:42:16;;;;;;;166.75;44.90;;;;;;;;;;5002738;28;20035;-65
2021/03/03 05:44:45;;;;;;;168.40;44.75;;;;;;;;;;5014403;28;20500;-65
2021/03/03 05:47:10;;;;;;;166.82;47.05;;;;;;;;;;5014363;28;20022;-66
2021/03/03 05:49:38;;;;;;;173.60;44.92;;;;;;;;;;5013440;28;20033;-65
2021/03/03 05:52:05;;;;;;;163.05;44.95;;;;;;;;;;5014242;28;20033;-66
2021/03/03 05:54:30;;;;;;;146.95;45.00;;;;;;;;;;5013013;28;20446;-66
2021/03/03 05:56:56;;;;;;;181.98;45.28;;;;;;;;;;5013896;28;20068;-65
2021/03/03 05:59:21;;;;;;;194.07;47.00;;;;;;;;;;5014093;28;20097;-66
2021/03/03 06:01:48;;;;;;;180.93;46.33;;;;;;;;;;5014149;28;20109;-66
2021/03/03 06:04:13;;;;;;;205.68;49.83;;;;;;;;;;5014023;28;20038;-65
2021/03/03 06:06:44;;;;;;;168.73;48.20;;;;;;;;;;5014050;28;20028;-66
2021/03/03 06:09:09;;;;;;;218.60;48.50;;;;;;;;;;5014004;28;20344;-65
2021/03/03 06:11:35;;;;;;;207.13;46.63;;;;;;;;;;5013985;28;20041;-65
2021/03/03 06:14:00;;;;;;;222.95;48.88;;;;;;;;;;5013751;28;20097;-66
2021/03/03 06:16:26;;;;;;;221.07;47.90;;;;;;;;;;5013958;28;20129;-66
2021/03/03 06:18:53;;;;;;;181.05;46.83;;;;;;;;;;5013767;28;20034;-66
2021/03/03 06:21:23;;;;;;;191.77;45.72;;;;;;;;;;5013884;28;20022;-65
2021/03/03 06:23:57;;;;;;;164.75;46.95;;;;;;;;;;5012381;28;20382;-65
2021/03/03 06:26:22;;;;;;;181.82;48.50;;;;;;;;;;5013553;28;20387;-65
2021/03/03 06:28:47;;;;;;;162.50;45.28;;;;;;;;;;5013534;28;20024;-65
2021/03/03 06:31:32;;;;;;;159.73;46.08;;;;;;;;;;5013799;28;20418;-65
2021/03/03 06:34:07;;;;;;;178.57;48.67;;;;;;;;;;5013460;28;20034;-65
2021/03/03 06:36:33;;;;;;;147.95;46.78;;;;;;;;;;5012422;28;20022;-65
2021/03/03 06:39:12;;;;;;;132.27;43.95;;;;;;;;;;5013383;28;20656;-65
2021/03/03 06:41:38;;;;;;;141.52;45.53;;;;;;;;;;5010711;28;20109;-65
2021/03/03 06:44:03;;;;;;;146.45;47.90;;;;;;;;;;4993626;28;20136;-65
2021/03/03 06:46:28;;;;;;;159.30;45.55;;;;;;;;;;4993860;28;20010;-65
2021/03/03 06:48:54;;;;;;;154.43;46.47;;;;;;;;;;4993811;28;20094;-65
2021/03/03 06:51:32;;;;;;;140.20;44.78;;;;;;;;;;4993849;28;20061;-65
2021/03/03 06:54:03;;;;;;;133.43;44.42;;;;;;;;;;4993640;28;20026;-65
2021/03/03 06:56:31;;;;;;;160.35;45.85;;;;;;;;;;4993757;28;20056;-66
2021/03/03 06:59:08;;;;;;;171.95;46.40;;;;;;;;;;4993611;28;20030;-65
2021/03/03 07:01:34;;;;;;;171.98;44.42;;;;;;;;;;4996006;28;20648;-66
2021/03/03 07:03:59;;;;;;;189.20;45.30;;;;;;;;;;4997367;28;20497;-66
2021/03/03 07:06:30;;;;;;;197.88;46.20;;;;;;;;;;4997881;28;20018;-65
2021/03/03 07:08:56;;;;;;;231.30;47.05;;;;;;;;;;4997361;28;20088;-65
2021/03/03 07:11:21;;;;;;;231.38;47.88;;;;;;;;;;4997378;28;20475;-65
2021/03/03 07:13:47;;;;;;;160.63;44.85;;;;;;;;;;4997515;28;20018;-65
2021/03/03 07:16:12;;;;;;;139.75;48.30;;;;;;;;;;4997191;28;20403;-65
2021/03/03 07:18:38;;;;;;;149.45;48.13;;;;;;;;;;4997462;28;20046;-66
2021/03/03 07:21:05;;;;;;;135.32;46.45;;;;;;;;;;4997526;28;20379;-66
2021/03/03 07:23:40;;;;;;;151.88;48.72;;;;;;;;;;4996115;28;20497;-66
2021/03/03 07:26:05;;;;;;;162.55;57.58;;;;;;;;;;4997431;28;20034;-65
2021/03/03 07:28:31;;;;;;;204.52;67.55;;;;;;;;;;4997285;28;20022;-66
2021/03/03 07:30:57;;;;;;;184.52;63.42;;;;;;;;;;4988366;28;20035;-65
2021/03/03 07:33:23;;;;;;;194.80;59.60;;;;;;;;;;4982252;28;20022;-68
2021/03/03 07:35:48;;;;;;;177.27;50.70;;;;;;;;;;4986298;28;20055;-65
2021/03/03 07:38:14;;;;;;;153.43;47.45;;;;;;;;;;4997098;28;20038;-65
2021/03/03 07:40:39;;;;;;;148.38;49.72;;;;;;;;;;4996852;28;20022;-65
2021/03/03 07:43:05;;;;;;;141.88;53.58;;;;;;;;;;5011345;28;20034;-65
2021/03/03 07:45:37;;;;;;;150.88;47.08;;;;;;;;;;5016339;28;20050;-65
2021/03/03 07:48:05;;;;;;;152.93;47.65;;;;;;;;;;5016165;28;20402;-66
2021/03/03 07:50:30;;;;;;;140.43;44.25;;;;;;;;;;5016638;28;20034;-65
2021/03/03 07:52:56;;;;;;;135.55;45.08;;;;;;;;;;5016743;28;20037;-65
2021/03/03 07:55:22;;;;;;;165.00;44.47;;;;;;;;;;5016583;28;20414;-65
2021/03/03 07:57:52;;;;;;;140.65;44.50;;;;;;;;;;5016414;28;20032;-65
2021/03/03 08:00:24;;;;;;;144.75;44.53;;;;;;;;;;4990041;28;20399;-66
2021/03/03 08:02:50;;;;;;;134.98;45.05;;;;;;;;;;4981324;28;20573;-66
2021/03/03 08:05:26;;;;;;;143.75;47.05;;;;;;;;;;4987526;28;20035;-65
2021/03/03 08:08:10;;;;;;;152.48;46.70;;;;;;;;;;4980135;28;20027;-65
2021/03/03 08:10:39;;;;;;;144.88;44.05;;;;;;;;;;4972696;28;20030;-65
2021/03/03 08:13:04;;;;;;;174.73;46.25;;;;;;;;;;4992922;28;20033;-67
2021/03/03 08:15:30;;;;;;;135.48;44.63;;;;;;;;;;4994282;28;20050;-67
2021/03/03 08:18:14;;;;;;;150.32;45.83;;;;;;;;;;4983791;28;20065;-66
2021/03/03 08:20:50;;;;;;;126.32;42.65;;;;;;;;;;4993042;28;20069;-66
2021/03/03 08:23:33;;;;;;;139.65;46.63;;;;;;;;;;4993416;28;20124;-67
2021/03/03 08:26:05;;;;;;;136.93;46.53;;;;;;;;;;4993699;28;20089;-66
2021/03/03 08:28:44;;;;;;;114.43;42.83;;;;;;;;;;4997008;28;20049;-65
2021/03/03 08:31:12;;;;;;;114.85;44.67;;;;;;;;;;5007994;28;20379;-65
2021/03/03 08:33:38;;;;;;;154.73;42.97;;;;;;;;;;5008116;28;20030;-67
2021/03/03 08:36:05;;;;;;;122.55;42.95;;;;;;;;;;4992551;28;20439;-65
2021/03/03 08:38:31;;;;;;;120.03;44.28;;;;;;;;;;4992758;28;20034;-66
2021/03/03 08:41:14;;;;;;;119.75;43.22;;;;;;;;;;4992031;28;20034;-65
2021/03/03 08:43:41;;;;;;;116.07;43.30;;;;;;;;;;4992493;28;20037;-65
2021/03/03 08:46:18;;;;;;;121.40;42.22;;;;;;;;;;4993743;28;20038;-66
2021/03/03 08:48:44;;;;;;;124.55;42.80;;;;;;;;;;4994241;28;20022;-66
2021/03/03 08:51:28;;;;;;;116.93;42.53;;;;;;;;;;4997298;28;20467;-66
2021/03/03 08:53:54;;;;;;;122.55;41.42;;;;;;;;;;4985458;28;20108;-66
2021/03/03 08:56:38;;;;;;;122.65;43.55;;;;;;;;;;4991874;28;20042;-66
2021/03/03 08:59:22;;;;;;;111.28;42.00;;;;;;;;;;4997994;28;20026;-66
2021/03/03 09:01:54;;;;;;;103.40;40.15;;;;;;;;;;5010583;28;20030;-66
2021/03/03 09:04:29;;;;;;;110.60;40.97;;;;;;;;;;5012110;28;20026;-66
2021/03/03 09:06:56;;;;;;;114.40;40.72;;;;;;;;;;4997540;28;20691;-66
2021/03/03 09:09:22;;;;;;;121.18;44.53;;;;;;;;;;4990347;28;20029;-66
2021/03/03 09:11:47;;;;;;;112.30;40.03;;;;;;;;;;4991666;28;20247;-66
2021/03/03 09:14:13;;;;;;;116.30;42.38;;;;;;;;;;4990980;28;20050;-66
2021/03/03 09:16:51;;;;;;;110.13;41.38;;;;;;;;;;4989428;28;20026;-67
2021/03/03 09:19:17;;;;;;;102.32;40.85;;;;;;;;;;4991624;28;20031;-66
2021/03/03 09:21:42;;;;;;;101.28;39.63;;;;;;;;;;4991321;28;20041;-66
2021/03/03 09:24:08;;;;;;;97.70;39.83;;;;;;;;;;4990834;28;20038;-67
2021/03/03 09:26:34;;;;;;;90.78;40.00;;;;;;;;;;4992658;28;20072;-66
2021/03/03 09:28:59;;;;;;;90.78;37.63;;;;;;;;;;4988911;28;20030;-65
2021/03/03 09:31:31;;;;;;;104.35;40.88;;;;;;;;;;4992346;28;20038;-66
2021/03/03 09:33:57;;;;;;;105.30;41.83;;;;;;;;;;4992117;28;20479;-66
2021/03/03 09:36:22;;;;;;;100.43;39.78;;;;;;;;;;4992280;28;20132;-66
2021/03/03 09:38:54;;;;;;;106.65;40.45;;;;;;;;;;4991802;28;20154;-66
2021/03/03 09:41:20;;;;;;;97.75;41.22;;;;;;;;;;4991656;28;20023;-66
2021/03/03 09:44:01;;;;;;;94.15;39.08;;;;;;;;;;5011323;28;20060;-66
2021/03/03 09:46:26;;;;;;;95.60;39.55;;;;;;;;;;5011637;28;20038;-66
2021/03/03 09:48:52;;;;;;;96.85;40.30;;;;;;;;;;5003176;28;20026;-65
2021/03/03 09:51:17;;;;;;;99.60;39.35;;;;;;;;;;5001480;28;20041;-66
2021/03/03 09:53:54;;;;;;;107.10;41.28;;;;;;;;;;5010541;28;20045;-66
2021/03/03 09:56:27;;;;;;;99.22;39.33;;;;;;;;;;5007520;28;20034;-66
2021/03/03 09:58:52;;;;;;;99.85;39.50;;;;;;;;;;4984538;28;20070;-66
2021/03/03 10:01:18;;;;;;;97.07;40.40;;;;;;;;;;4975627;28;20153;-66
2021/03/03 10:03:43;;;;;;;97.90;42.05;;;;;;;;;;4986298;28;20042;-66
2021/03/03 10:06:08;;;;;;;94.25;40.85;;;;;;;;;;4988673;28;20069;-66
2021/03/03 10:08:34;;;;;;;93.18;39.05;;;;;;;;;;4993209;28;20030;-66
2021/03/03 10:10:59;;;;;;;90.05;39.33;;;;;;;;;;4987549;28;20065;-66
2021/03/03 10:13:25;;;;;;;93.82;38.60;;;;;;;;;;5002397;28;20566;-66
2021/03/03 10:15:50;;;;;;;95.80;40.92;;;;;;;;;;4987939;28;20578;-66
2021/03/03 10:18:15;;;;;;;102.68;40.10;;;;;;;;;;4997504;28;20073;-66
2021/03/03 10:20:43;;;;;;;94.85;38.65;;;;;;;;;;4993912;28;20042;-66
2021/03/03 10:23:11;;;;;;;88.30;39.50;;;;;;;;;;5002965;28;20050;-66
2021/03/03 10:25:38;;;;;;;97.13;42.30;;;;;;;;;;4975767;28;20107;-66
2021/03/03 10:28:04;;;;;;;109.05;42.22;;;;;;;;;;4999906;28;20034;-66
2021/03/03 10:30:31;;;;;;;103.13;41.53;;;;;;;;;;4985890;28;20654;-66
2021/03/03 10:32:56;;;;;;;105.20;41.67;;;;;;;;;;4986850;28;20185;-66
2021/03/03 10:35:22;;;;;;;104.38;40.40;;;;;;;;;;5003062;28;20194;-66
2021/03/03 10:37:48;;;;;;;101.78;40.75;;;;;;;;;;4993164;28;20030;-66
2021/03/03 10:40:14;;;;;;;100.10;40.95;;;;;;;;;;5002413;28;20044;-66
2021/03/03 10:42:40;;;;;;;107.10;42.90;;;;;;;;;;5004766;28;20128;-66
2021/03/03 10:45:18;;;;;;;102.10;43.45;;;;;;;;;;5006306;28;20142;-66
2021/03/03 10:47:45;;;;;;;107.28;41.92;;;;;;;;;;4976597;28;20033;-66
2021/03/03 10:50:11;;;;;;;100.38;41.67;;;;;;;;;;4998004;28;20030;-65
2021/03/03 10:52:36;;;;;;;120.07;45.97;;;;;;;;;;4997803;28;20505;-68
2021/03/03 10:55:15;;;;;;;131.55;48.40;;;;;;;;;;4991292;28;20096;-68
2021/03/03 10:57:56;;;;;;;133.88;45.47;;;;;;;;;;4990943;28;20180;-68
2021/03/03 11:00:22;;;;;;;122.07;46.47;;;;;;;;;;4985175;28;20026;-69
2021/03/03 11:02:57;;;;;;;124.95;47.70;;;;;;;;;;4986264;28;20397;-68
2021/03/03 11:05:22;;;;;;;127.77;44.77;;;;;;;;;;4988758;28;20390;-68
2021/03/03 11:07:47;;;;;;;155.73;51.50;;;;;;;;;;5001256;28;20280;-68
2021/03/03 11:10:12;;;;;;;153.55;51.60;;;;;;;;;;4995269;28;20768;-68
2021/03/03 11:12:37;;;;;;;142.05;47.53;;;;;;;;;;5003511;28;20742;-68
2021/03/03 11:15:03;;;;;;;131.23;48.60;;;;;;;;;;5006273;28;20048;-68
2021/03/03 11:17:28;;;;;;;153.55;50.33;;;;;;;;;;5004422;28;20037;-68
2021/03/03 11:19:54;;;;;;;153.00;51.35;;;;;;;;;;4985501;28;20114;-68
2021/03/03 11:22:19;;;;;;;144.20;49.67;;;;;;;;;;4979313;28;20053;-69
2021/03/03 11:24:44;;;;;;;141.77;49.95;;;;;;;;;;4986533;28;20053;-68
2021/03/03 11:27:09;;;;;;;158.05;51.45;;;;;;;;;;4986417;28;20517;-68
2021/03/03 11:29:34;;;;;;;144.38;50.78;;;;;;;;;;4985306;28;20452;-68
2021/03/03 11:32:00;;;;;;;154.00;52.05;;;;;;;;;;4984532;28;20021;-69
2021/03/03 11:34:25;;;;;;;147.35;50.40;;;;;;;;;;4980685;28;20511;-68
2021/03/03 11:36:50;;;;;;;161.15;54.40;;;;;;;;;;4986098;28;20069;-68
2021/03/03 11:39:15;;;;;;;139.85;51.60;;;;;;;;;;5002107;28;20029;-69
2021/03/03 11:41:41;;;;;;;151.35;52.60;;;;;;;;;;4990713;28;20450;-68
2021/03/03 11:44:07;;;;;;;154.60;51.30;;;;;;;;;;5005621;28;20045;-69
2021/03/03 11:46:32;;;;;;;157.07;55.13;;;;;;;;;;4999563;28;20029;-68
2021/03/03 11:48:58;;;;;;;154.98;53.70;;;;;;;;;;4997114;28;20299;-68
2021/03/03 11:51:23;;;;;;;166.63;54.65;;;;;;;;;;4999818;28;20038;-68
2021/03/03 11:53:50;;;;;;;162.55;53.97;;;;;;;;;;4994184;28;20018;-68
2021/03/03 11:56:15;;;;;;;160.70;53.17;;;;;;;;;;4999107;28;20046;-68
2021/03/03 11:58:40;;;;;;;166.85;53.88;;;;;;;;;;4994279;28;20034;-69
2021/03/03 12:01:05;;;;;;;143.50;49.15;;;;;;;;;;4997442;28;20026;-68
2021/03/03 12:03:31;;;;;;;140.20;49.45;;;;;;;;;;4992478;28;20116;-68
2021/03/03 12:05:56;;;;;;;154.95;51.00;;;;;;;;;;5002450;28;20645;-68
2021/03/03 12:08:21;;;;;;;146.88;49.08;;;;;;;;;;4988505;28;20105;-69
2021/03/03 12:10:46;;;;;;;146.45;50.15;;;;;;;;;;4988519;28;20043;-68
2021/03/03 12:13:12;;;;;;;145.73;49.03;;;;;;;;;;5005943;28;20033;-68
2021/03/03 12:15:37;;;;;;;140.05;50.38;;;;;;;;;;4991718;28;20033;-69
2021/03/03 12:18:02;;;;;;;151.13;53.83;;;;;;;;;;5002121;28;20524;-68
2021/03/03 12:20:28;;;;;;;147.10;48.42;;;;;;;;;;4999852;28;20056;-68
2021/03/03 12:22:55;;;;;;;148.13;50.47;;;;;;;;;;5004917;28;20490;-68
2021/03/03 12:25:20;;;;;;;140.35;49.95;;;;;;;;;;4984723;28;20038;-68
2021/03/03 12:27:45;;;;;;;135.95;50.67;;;;;;;;;;4991181;28;20026;-68
2021/03/03 12:30:11;;;;;;;138.40;48.83;;;;;;;;;;5000349;28;20420;-68
2021/03/03 12:32:36;;;;;;;139.45;49.30;;;;;;;;;;4987238;28;20026;-69
2021/03/03 12:35:02;;;;;;;136.38;50.25;;;;;;;;;;5001915;28;20482;-69
2021/03/03 12:37:27;;;;;;;133.00;48.53;;;;;;;;;;5008470;28;20080;-68
2021/03/03 12:39:52;;;;;;;152.15;53.28;;;;;;;;;;5009006;28;20069;-68
2021/03/03 12:42:18;;;;;;;125.75;48.45;;;;;;;;;;4999597;28;20057;-68
2021/03/03 12:44:43;;;;;;;122.32;47.30;;;;;;;;;;5001027;28;20081;-68
2021/03/03 12:47:08;;;;;;;128.90;48.30;;;;;;;;;;4992368;28;20670;-68
2021/03/03 12:49:34;;;;;;;130.85;49.20;;;;;;;;;;5004666;28;20141;-68
2021/03/03 12:51:59;;;;;;;131.30;49.20;;;;;;;;;;4995634;28;20474;-68
2021/03/03 12:54:24;;;;;;;127.35;47.92;;;;;;;;;;5000765;28;20058;-68
2021/03/03 12:56:49;;;;;;;121.00;49.97;;;;;;;;;;4987947;28;20035;-68
2021/03/03 12:59:15;;;;;;;125.45;47.40;;;;;;;;;;5001321;28;20438;-68
2021/03/03 13:01:40;;;;;;;132.68;50.30;;;;;;;;;;4984414;28;20034;-68
2021/03/03 13:04:05;;;;;;;124.15;47.42;;;;;;;;;;4991520;28;20026;-68
2021/03/03 13:06:30;;;;;;;124.80;47.80;;;;;;;;;;4993049;28;20419;-68
2021/03/03 13:08:56;;;;;;;125.47;47.25;;;;;;;;;;5003676;28;20079;-68
2021/03/03 13:11:23;;;;;;;134.10;48.17;;;;;;;;;;4991893;28;20774;-69
2021/03/03 13:13:48;;;;;;;131.32;48.47;;;;;;;;;;5002995;28;20487;-68
2021/03/03 13:16:14;;;;;;;121.07;47.70;;;;;;;;;;4997027;28;20049;-68
2021/03/03 13:18:39;;;;;;;124.45;47.50;;;;;;;;;;4988243;28;20043;-68
2021/03/03 13:21:04;;;;;;;133.32;50.65;;;;;;;;;;4996766;28;20125;-68
2021/03/03 13:23:29;;;;;;;140.63;50.55;;;;;;;;;;4997014;28;20064;-68
2021/03/03 13:25:55;;;;;;;130.75;50.00;;;;;;;;;;5001476;28;20104;-68
2021/03/03 13:28:20;;;;;;;132.20;48.40;;;;;;;;;;4997193;28;20139;-69
2021/03/03 13:30:45;;;;;;;117.40;46.67;;;;;;;;;;4994686;28;20041;-68
2021/03/03 13:33:11;;;;;;;131.15;50.92;;;;;;;;;;4989040;28;20667;-68
2021/03/03 13:35:39;;;;;;;125.70;49.05;;;;;;;;;;4987785;28;20049;-69
2021/03/03 13:38:04;;;;;;;128.55;50.58;;;;;;;;;;4990043;28;20027;-68
2021/03/03 13:40:29;;;;;;;129.73;48.78;;;;;;;;;;5007947;28;20038;-68
2021/03/03 13:42:54;;;;;;;129.93;48.15;;;;;;;;;;5007526;28;20026;-68
2021/03/03 13:45:20;;;;;;;115.15;45.97;;;;;;;;;;4993244;28;20054;-68
2021/03/03 13:47:45;;;;;;;115.88;48.85;;;;;;;;;;4993581;28;20066;-68
2021/03/03 13:50:11;;;;;;;131.95;50.40;;;;;;;;;;4991948;28;20026;-69
2021/03/03 13:52:36;;;;;;;114.57;47.67;;;;;;;;;;4999459;28;20032;-68
2021/03/03 13:55:01;;;;;;;114.20;47.70;;;;;;;;;;4992313;28;20046;-68
2021/03/03 13:57:27;;;;;;;110.13;46.33;;;;;;;;;;4989405;28;20511;-68
2021/03/03 13:59:52;;;;;;;107.15;44.88;;;;;;;;;;5001054;28;20124;-68
2021/03/03 14:02:17;;;;;;;107.95;47.65;;;;;;;;;;4996758;28;20124;-68
2021/03/03 14:04:42;;;;;;;116.43;47.90;;;;;;;;;;4994424;28;20026;-68